createdAt,value
2018-05-11T00:02:16.621Z,11.93
2018-05-11T00:04:44.227Z,11.30
2018-05-11T00:07:13.803Z,12.00
2018-05-11T00:09:41.379Z,11.30
2018-05-11T00:12:09.002Z,10.70
2018-05-11T00:14:37.038Z,11.80
2018-05-11T00:17:04.863Z,11.60
2018-05-11T00:19:32.448Z,11.70
2018-05-11T00:22:00.044Z,10.90
2018-05-11T00:24:27.639Z,11.17
2018-05-11T00:26:55.270Z,11.57
2018-05-11T00:29:22.886Z,10.73
2018-05-11T00:31:50.514Z,12.00
2018-05-11T00:34:18.099Z,12.40
2018-05-11T00:36:45.757Z,11.17
2018-05-11T00:39:13.399Z,11.40
2018-05-11T00:41:41.041Z,11.07
2018-05-11T00:44:08.712Z,11.73
2018-05-11T00:46:36.478Z,10.93
2018-05-11T00:49:04.618Z,11.50
2018-05-11T00:51:32.957Z,11.70
2018-05-11T00:54:00.540Z,11.00
2018-05-11T00:56:28.247Z,11.63
2018-05-11T00:58:55.860Z,12.30
2018-05-11T01:01:29.579Z,12.40
2018-05-11T01:03:57.172Z,11.90
2018-05-11T01:06:24.762Z,11.97
2018-05-11T01:08:52.353Z,11.60
2018-05-11T01:11:19.963Z,12.40
2018-05-11T01:13:47.609Z,10.97
2018-05-11T01:16:16.019Z,11.30
2018-05-11T01:18:43.644Z,11.63
2018-05-11T01:21:12.399Z,12.37
2018-05-11T01:23:40.024Z,11.87
2018-05-11T01:26:07.629Z,12.93
2018-05-11T01:28:35.314Z,13.33
2018-05-11T01:31:03.718Z,13.27
2018-05-11T01:33:31.345Z,13.23
2018-05-11T01:35:58.949Z,14.57
2018-05-11T01:38:26.564Z,13.60
2018-05-11T01:40:54.147Z,15.03
2018-05-11T01:43:22.753Z,17.33
2018-05-11T01:45:51.251Z,15.43
2018-05-11T01:48:18.837Z,15.47
2018-05-11T01:50:46.587Z,15.63
2018-05-11T01:53:14.178Z,15.73
2018-05-11T01:55:41.781Z,16.77
2018-05-11T01:58:09.407Z,16.63
2018-05-11T02:00:37.094Z,15.33
2018-05-11T02:03:04.711Z,16.70
2018-05-11T02:05:32.481Z,16.90
2018-05-11T02:08:00.793Z,17.90
2018-05-11T02:10:29.154Z,16.93
2018-05-11T02:12:56.752Z,16.80
2018-05-11T02:15:24.380Z,19.13
2018-05-11T02:17:52.011Z,17.93
2018-05-11T02:20:19.600Z,17.93
2018-05-11T02:22:47.209Z,17.90
2018-05-11T02:25:14.819Z,19.10
2018-05-11T02:27:43.463Z,18.07
2018-05-11T02:30:11.047Z,19.67
2018-05-11T02:32:38.679Z,19.90
2018-05-11T02:35:06.318Z,19.67
2018-05-11T02:37:34.016Z,19.77
2018-05-11T02:40:01.626Z,18.40
2018-05-11T02:42:29.892Z,18.70
2018-05-11T02:44:57.518Z,18.57
2018-05-11T02:47:25.116Z,18.23
2018-05-11T02:49:52.702Z,17.87
2018-05-11T02:52:21.081Z,17.87
2018-05-11T02:54:48.689Z,18.90
2018-05-11T02:57:16.511Z,18.13
2018-05-11T02:59:44.107Z,17.60
2018-05-11T03:02:11.696Z,18.23
2018-05-11T03:04:39.402Z,19.50
2018-05-11T03:07:07.785Z,20.07
2018-05-11T03:09:36.140Z,18.17
2018-05-11T03:12:03.734Z,16.70
2018-05-11T03:14:31.329Z,16.40
2018-05-11T03:16:59.055Z,17.00
2018-05-11T03:19:27.220Z,16.63
2018-05-11T03:21:55.706Z,16.10
2018-05-11T03:24:23.344Z,15.03
2018-05-11T03:26:51.147Z,17.67
2018-05-11T03:29:19.560Z,18.20
2018-05-11T03:31:47.329Z,19.53
2018-05-11T03:34:14.924Z,17.53
2018-05-11T03:36:42.545Z,19.07
2018-05-11T03:39:10.138Z,19.23
2018-05-11T03:41:37.728Z,18.33
2018-05-11T03:44:06.144Z,18.93
2018-05-11T03:46:33.717Z,19.60
2018-05-11T03:49:01.332Z,18.63
2018-05-11T03:51:29.723Z,18.27
2018-05-11T03:53:58.071Z,16.17
2018-05-11T03:56:25.668Z,18.00
2018-05-11T03:58:53.271Z,17.33
2018-05-11T04:01:32.472Z,19.10
2018-05-11T04:04:11.757Z,18.50
2018-05-11T04:06:52.132Z,18.67
2018-05-11T04:09:19.703Z,18.30
2018-05-11T04:11:48.111Z,18.87
2018-05-11T04:14:15.725Z,18.80
2018-05-11T04:16:43.709Z,18.30
2018-05-11T04:19:11.625Z,17.80
2018-05-11T04:21:39.204Z,18.57
2018-05-11T04:24:06.807Z,18.50
2018-05-11T04:26:35.292Z,18.23
2018-05-11T04:29:03.236Z,18.07
2018-05-11T04:31:30.837Z,17.63
2018-05-11T04:33:58.419Z,16.30
2018-05-11T04:36:26.000Z,16.17
2018-05-11T04:38:53.602Z,17.10
2018-05-11T04:41:21.176Z,16.67
2018-05-11T04:43:48.745Z,15.63
2018-05-11T04:46:16.383Z,15.83
2018-05-11T04:48:43.969Z,14.57
2018-05-11T04:51:11.572Z,13.93
2018-05-11T04:53:39.154Z,15.77
2018-05-11T04:56:06.769Z,15.27
2018-05-11T04:58:34.359Z,15.67
2018-05-11T05:01:01.943Z,15.47
2018-05-11T05:03:29.636Z,15.47
2018-05-11T05:05:57.999Z,14.20
2018-05-11T05:08:26.325Z,14.93
2018-05-11T05:10:53.887Z,16.45
2018-05-11T05:13:21.489Z,14.33
2018-05-11T05:15:49.076Z,14.90
2018-05-11T05:18:16.670Z,13.80
2018-05-11T05:20:44.260Z,14.73
2018-05-11T05:23:11.912Z,15.33
2018-05-11T05:25:39.491Z,14.47
2018-05-11T05:28:07.058Z,14.03
2018-05-11T05:30:34.644Z,15.70
2018-05-11T05:33:03.062Z,16.20
2018-05-11T05:35:30.582Z,17.53
2018-05-11T05:37:58.919Z,17.17
2018-05-11T05:40:26.547Z,17.43
2018-05-11T05:42:54.161Z,17.67
2018-05-11T05:45:21.759Z,18.43
2018-05-11T05:47:49.360Z,17.13
2018-05-11T05:50:16.946Z,15.60
2018-05-11T05:52:44.532Z,16.77
2018-05-11T05:55:12.106Z,18.00
2018-05-11T05:57:39.709Z,18.63
2018-05-11T06:00:07.299Z,18.13
2018-05-11T06:02:35.732Z,18.13
2018-05-11T06:05:04.078Z,18.93
2018-05-11T06:07:31.710Z,18.23
2018-05-11T06:09:59.305Z,17.40
2018-05-11T06:12:26.921Z,16.47
2018-05-11T06:14:54.547Z,18.10
2018-05-11T06:17:22.127Z,17.40
2018-05-11T06:19:49.741Z,16.07
2018-05-11T06:22:18.091Z,16.90
2018-05-11T06:24:45.696Z,17.20
2018-05-11T06:27:13.364Z,15.27
2018-05-11T06:29:40.952Z,14.53
2018-05-11T06:32:08.546Z,12.47
2018-05-11T06:34:36.173Z,13.10
2018-05-11T06:37:03.766Z,11.17
2018-05-11T06:39:31.363Z,9.80
2018-05-11T06:41:58.940Z,10.80
2018-05-11T06:44:26.542Z,9.60
2018-05-11T06:46:54.134Z,9.90
2018-05-11T06:49:21.721Z,9.60
2018-05-11T06:51:49.305Z,9.83
2018-05-11T06:54:16.994Z,9.97
2018-05-11T06:56:44.585Z,10.27
2018-05-11T06:59:12.160Z,9.40
2018-05-11T07:01:39.830Z,9.17
2018-05-11T07:04:07.440Z,9.77
2018-05-11T07:06:35.028Z,9.57
2018-05-11T07:09:02.602Z,9.50
2018-05-11T07:11:30.170Z,9.57
2018-05-11T07:13:57.749Z,10.10
2018-05-11T07:16:25.334Z,9.10
2018-05-11T07:18:52.902Z,8.40
2018-05-11T07:21:20.514Z,8.13
2018-05-11T07:23:48.099Z,9.80
2018-05-11T07:26:15.702Z,10.50
2018-05-11T07:28:44.061Z,9.47
2018-05-11T07:31:11.667Z,9.50
2018-05-11T07:33:39.317Z,10.57
2018-05-11T07:36:07.664Z,8.43
2018-05-11T07:38:35.228Z,8.47
2018-05-11T07:41:02.817Z,8.83
2018-05-11T07:43:30.486Z,9.30
2018-05-11T07:45:58.021Z,9.23
2018-05-11T07:48:25.592Z,8.93
2018-05-11T07:50:53.189Z,8.30
2018-05-11T07:53:20.786Z,8.97
2018-05-11T07:55:48.379Z,8.57
2018-05-11T07:58:15.969Z,8.37
2018-05-11T08:00:44.134Z,8.97
2018-05-11T08:03:11.858Z,8.40
2018-05-11T08:05:39.449Z,8.73
2018-05-11T08:08:07.113Z,9.40
2018-05-11T08:10:35.465Z,8.47
2018-05-11T08:13:03.406Z,9.53
2018-05-11T08:15:30.966Z,7.57
2018-05-11T08:17:58.561Z,6.70
2018-05-11T08:20:26.224Z,7.17
2018-05-11T08:22:53.761Z,7.17
2018-05-11T08:25:21.336Z,7.13
2018-05-11T08:27:48.944Z,6.93
2018-05-11T08:30:16.528Z,6.63
2018-05-11T08:32:44.088Z,7.50
2018-05-11T08:35:11.680Z,6.77
2018-05-11T08:37:39.262Z,7.00
2018-05-11T08:40:06.845Z,6.83
2018-05-11T08:42:35.183Z,6.70
2018-05-11T08:45:02.749Z,7.00
2018-05-11T08:47:30.323Z,10.80
2018-05-11T08:49:57.897Z,9.43
2018-05-11T08:52:26.241Z,9.70
2018-05-11T08:54:54.291Z,9.53
2018-05-11T08:57:21.862Z,16.23
2018-05-11T08:59:49.432Z,21.03
2018-05-11T09:02:17.020Z,11.03
2018-05-11T09:04:44.603Z,14.77
2018-05-11T09:07:12.951Z,9.37
2018-05-11T09:09:40.532Z,8.70
2018-05-11T09:12:08.187Z,8.67
2018-05-11T09:14:35.870Z,8.10
2018-05-11T09:17:04.244Z,8.23
2018-05-11T09:19:32.615Z,8.97
2018-05-11T09:22:01.042Z,8.90
2018-05-11T09:24:28.546Z,9.30
2018-05-11T09:26:56.142Z,9.13
2018-05-11T09:29:23.712Z,8.43
2018-05-11T09:31:51.369Z,9.80
2018-05-11T09:34:18.961Z,10.40
2018-05-11T09:36:46.547Z,9.97
2018-05-11T09:39:14.145Z,8.67
2018-05-11T09:41:41.733Z,10.17
2018-05-11T09:44:09.322Z,11.63
2018-05-11T09:46:36.913Z,11.50
2018-05-11T09:49:04.780Z,11.47
2018-05-11T09:51:32.398Z,10.37
2018-05-11T09:53:59.973Z,8.33
2018-05-11T09:56:27.566Z,10.07
2018-05-11T09:58:55.923Z,9.30
2018-05-11T10:01:23.528Z,10.20
2018-05-11T10:03:51.116Z,10.33
2018-05-11T10:06:19.460Z,9.50
2018-05-11T10:08:47.814Z,10.13
2018-05-11T10:11:15.397Z,11.30
2018-05-11T10:13:43.853Z,9.70
2018-05-11T10:16:11.446Z,9.27
2018-05-11T10:18:39.154Z,8.60
2018-05-11T10:21:06.765Z,9.07
2018-05-11T10:23:35.097Z,9.90
2018-05-11T10:26:02.695Z,8.10
2018-05-11T10:28:30.312Z,6.73
2018-05-11T10:30:57.950Z,7.47
2018-05-11T10:33:25.539Z,9.30
2018-05-11T10:35:53.137Z,7.40
2018-05-11T10:38:20.735Z,8.10
2018-05-11T10:40:48.569Z,6.87
2018-05-11T10:43:16.910Z,6.85
2018-05-11T10:45:44.490Z,6.82
2018-05-11T10:48:12.088Z,6.75
2018-05-11T10:50:39.678Z,8.02
2018-05-11T10:53:07.270Z,6.70
2018-05-11T10:55:34.848Z,7.83
2018-05-11T10:58:09.648Z,7.47
2018-05-11T11:00:38.349Z,7.30
2018-05-11T11:03:05.922Z,7.40
2018-05-11T11:05:33.518Z,7.47
2018-05-11T11:08:01.131Z,6.73
2018-05-11T11:10:28.714Z,7.10
2018-05-11T11:12:56.306Z,6.97
2018-05-11T11:15:23.904Z,8.10
2018-05-11T11:17:51.518Z,7.13
2018-05-11T11:20:19.169Z,6.63
2018-05-11T11:22:46.748Z,8.27
2018-05-11T11:25:14.351Z,7.10
2018-05-11T11:27:41.934Z,8.00
2018-05-11T11:30:09.551Z,14.30
2018-05-11T11:32:37.155Z,7.07
2018-05-11T11:35:04.718Z,7.43
2018-05-11T11:37:32.309Z,8.45
2018-05-11T11:39:59.898Z,6.80
2018-05-11T11:42:27.489Z,6.12
2018-05-11T11:44:55.096Z,6.18
2018-05-11T11:47:22.861Z,7.43
2018-05-11T11:49:50.534Z,6.10
2018-05-11T11:52:18.205Z,6.10
2018-05-11T11:54:45.789Z,6.93
2018-05-11T11:57:14.053Z,8.18
2018-05-11T11:59:42.652Z,6.15
2018-05-11T12:02:10.277Z,7.18
2018-05-11T12:04:37.886Z,6.70
2018-05-11T12:07:06.053Z,6.90
2018-05-11T12:09:33.646Z,7.97
2018-05-11T12:12:01.238Z,6.93
2018-05-11T12:14:29.084Z,7.30
2018-05-11T12:16:57.716Z,7.63
2018-05-11T12:19:25.889Z,8.32
2018-05-11T12:21:53.472Z,8.32
2018-05-11T12:24:21.049Z,7.68
2018-05-11T12:26:48.644Z,7.25
2018-05-11T12:29:17.034Z,9.75
2018-05-11T12:31:44.636Z,8.50
2018-05-11T12:34:12.329Z,7.82
2018-05-11T12:36:40.170Z,10.10
2018-05-11T12:39:07.849Z,9.52
2018-05-11T12:41:35.488Z,10.20
2018-05-11T12:44:03.103Z,9.10
2018-05-11T12:46:30.752Z,9.57
2018-05-11T12:48:58.321Z,8.63
2018-05-11T12:51:25.907Z,7.50
2018-05-11T12:53:53.470Z,8.73
2018-05-11T12:56:21.071Z,8.65
2018-05-11T12:58:48.651Z,8.48
2018-05-11T13:01:16.228Z,7.50
2018-05-11T13:03:47.197Z,7.40
2018-05-11T13:06:15.544Z,9.23
2018-05-11T13:08:44.064Z,6.93
2018-05-11T13:11:14.339Z,7.35
2018-05-11T13:13:41.958Z,8.23
2018-05-11T13:16:10.018Z,7.10
2018-05-11T13:18:37.858Z,5.72
2018-05-11T13:21:05.667Z,7.35
2018-05-11T13:23:33.247Z,7.90
2018-05-11T13:26:00.839Z,7.12
2018-05-11T13:28:29.208Z,6.70
2018-05-11T13:30:59.701Z,7.30
2018-05-11T13:33:27.312Z,8.30
2018-05-11T13:35:55.505Z,10.02
2018-05-11T13:38:23.422Z,8.63
2018-05-11T13:40:52.896Z,9.30
2018-05-11T13:43:20.554Z,10.07
2018-05-11T13:45:48.439Z,9.83
2018-05-11T13:48:16.148Z,11.03
2018-05-11T13:50:43.689Z,10.07
2018-05-11T13:53:11.286Z,7.90
2018-05-11T13:55:38.895Z,9.60
2018-05-11T13:58:06.472Z,9.00
2018-05-11T14:00:34.055Z,7.70
2018-05-11T14:03:01.631Z,6.87
2018-05-11T14:05:30.082Z,6.97
2018-05-11T14:07:57.660Z,8.80
2018-05-11T14:10:25.357Z,7.90
2018-05-11T14:12:53.447Z,7.20
2018-05-11T14:15:21.072Z,7.70
2018-05-11T14:17:49.468Z,7.83
2018-05-11T14:20:17.031Z,7.60
2018-05-11T14:22:44.604Z,8.07
2018-05-11T14:25:12.215Z,6.73
2018-05-11T14:27:39.818Z,7.28
2018-05-11T14:30:07.429Z,7.33
2018-05-11T14:32:35.705Z,8.53
2018-05-11T14:35:03.318Z,7.93
2018-05-11T14:37:35.893Z,8.68
2018-05-11T14:40:03.959Z,7.07
2018-05-11T14:42:31.549Z,7.03
2018-05-11T14:44:59.162Z,8.82
2018-05-11T14:47:27.509Z,7.93
2018-05-11T14:49:55.098Z,8.52
2018-05-11T14:52:22.695Z,8.25
2018-05-11T14:54:50.309Z,8.07
2018-05-11T14:57:17.969Z,7.90
2018-05-11T14:59:45.562Z,6.70
2018-05-11T15:02:13.165Z,7.82
2018-05-11T15:04:40.822Z,7.05
2018-05-11T15:07:08.423Z,6.30
2018-05-11T15:09:36.057Z,6.25
2018-05-11T15:12:03.649Z,5.68
2018-05-11T15:14:31.242Z,5.93
2018-05-11T15:16:58.834Z,5.55
2018-05-11T15:19:26.431Z,6.00
2018-05-11T15:21:53.994Z,5.68
2018-05-11T15:24:21.588Z,6.03
2018-05-11T15:26:49.204Z,5.93
2018-05-11T15:29:16.807Z,6.10
2018-05-11T15:31:45.142Z,5.75
2018-05-11T15:34:12.720Z,5.45
2018-05-11T15:36:40.291Z,5.53
2018-05-11T15:39:07.882Z,5.53
2018-05-11T15:41:35.506Z,5.55
2018-05-11T15:44:03.134Z,5.87
2018-05-11T15:46:30.716Z,5.40
2018-05-11T15:48:58.296Z,5.57
2018-05-11T15:51:26.639Z,6.57
2018-05-11T15:53:54.253Z,4.82
2018-05-11T15:56:21.833Z,6.70
2018-05-11T15:58:49.460Z,5.28
2018-05-11T16:01:17.078Z,5.43
2018-05-11T16:03:44.671Z,4.62
2018-05-11T16:06:12.248Z,5.15
2018-05-11T16:08:40.604Z,6.57
2018-05-11T16:11:08.170Z,5.30
2018-05-11T16:13:35.743Z,5.70
2018-05-11T16:16:03.328Z,5.82
2018-05-11T16:18:30.970Z,5.90
2018-05-11T16:20:58.671Z,5.32
2018-05-11T16:23:26.251Z,5.55
2018-05-11T16:25:53.831Z,6.20
2018-05-11T16:28:21.441Z,5.37
2018-05-11T16:30:49.054Z,5.35
2018-05-11T16:33:16.635Z,6.32
2018-05-11T16:35:44.231Z,4.60
2018-05-11T16:38:11.820Z,4.25
2018-05-11T16:40:39.394Z,4.62
2018-05-11T16:43:06.977Z,4.25
2018-05-11T16:45:34.574Z,5.47
2018-05-11T16:48:02.242Z,4.93
2018-05-11T16:50:30.610Z,4.93
2018-05-11T16:52:58.213Z,4.55
2018-05-11T16:55:25.801Z,5.25
2018-05-11T16:57:53.386Z,5.10
2018-05-11T17:00:21.219Z,4.40
2018-05-11T17:02:48.777Z,5.22
2018-05-11T17:05:16.463Z,4.68
2018-05-11T17:07:44.050Z,5.00
2018-05-11T17:10:11.637Z,5.03
2018-05-11T17:12:39.232Z,6.00
2018-05-11T17:15:06.878Z,4.93
2018-05-11T17:17:34.470Z,5.85
2018-05-11T17:20:02.079Z,4.90
2018-05-11T17:22:29.751Z,5.03
2018-05-11T17:24:58.107Z,5.80
2018-05-11T17:27:25.689Z,5.43
2018-05-11T17:29:53.333Z,4.77
2018-05-11T17:32:20.881Z,5.32
2018-05-11T17:34:48.486Z,4.93
2018-05-11T17:37:16.067Z,4.80
2018-05-11T17:39:43.654Z,5.25
2018-05-11T17:42:11.301Z,4.80
2018-05-11T17:44:38.903Z,5.53
2018-05-11T17:47:06.712Z,4.80
2018-05-11T17:49:34.307Z,4.68
2018-05-11T17:52:02.658Z,4.80
2018-05-11T17:54:30.551Z,4.57
2018-05-11T17:56:58.397Z,5.15
2018-05-11T17:59:26.791Z,5.15
2018-05-11T18:01:55.126Z,5.30
2018-05-11T18:04:22.733Z,5.50
2018-05-11T18:06:50.330Z,4.87
2018-05-11T18:09:17.931Z,3.80
2018-05-11T18:11:45.513Z,3.87
2018-05-11T18:14:13.116Z,4.05
2018-05-11T18:16:40.822Z,3.87
2018-05-11T18:19:08.563Z,4.22
2018-05-11T18:21:36.102Z,3.95
2018-05-11T18:24:03.699Z,4.30
2018-05-11T18:26:31.292Z,3.73
2018-05-11T18:28:58.851Z,3.80
2018-05-11T18:31:26.446Z,3.90
2018-05-11T18:33:54.374Z,3.58
2018-05-11T18:36:22.079Z,4.30
2018-05-11T18:38:49.776Z,4.23
2018-05-11T18:41:18.120Z,4.20
2018-05-11T18:43:45.683Z,3.90
2018-05-11T18:46:13.710Z,4.17
2018-05-11T18:48:41.549Z,4.70
2018-05-11T18:51:09.124Z,4.07
2018-05-11T18:53:37.002Z,4.37
2018-05-11T18:56:04.361Z,4.07
2018-05-11T18:58:32.094Z,4.47
2018-05-11T19:00:59.691Z,4.37
2018-05-11T19:03:27.290Z,3.93
2018-05-11T19:05:54.895Z,4.33
2018-05-11T19:08:26.384Z,4.20
2018-05-11T19:10:54.819Z,3.97
2018-05-11T19:13:22.430Z,3.90
2018-05-11T19:15:50.021Z,4.37
2018-05-11T19:18:17.620Z,4.37
2018-05-11T19:20:45.229Z,4.10
2018-05-11T19:23:12.846Z,4.30
2018-05-11T19:25:40.411Z,4.50
2018-05-11T19:28:07.979Z,3.97
2018-05-11T19:30:35.583Z,4.10
2018-05-11T19:33:03.166Z,4.63
2018-05-11T19:35:30.843Z,4.20
2018-05-11T19:37:58.634Z,4.50
2018-05-11T19:40:26.216Z,4.60
2018-05-11T19:42:54.628Z,4.60
2018-05-11T19:45:22.334Z,4.50
2018-05-11T19:47:49.960Z,4.87
2018-05-11T19:50:17.625Z,5.23
2018-05-11T19:52:45.218Z,5.20
2018-05-11T19:55:13.065Z,4.90
2018-05-11T19:57:40.734Z,5.80
2018-05-11T20:00:08.375Z,6.20
2018-05-11T20:02:35.986Z,6.60
2018-05-11T20:05:04.399Z,6.20
2018-05-11T20:07:32.101Z,6.43
2018-05-11T20:09:59.781Z,6.00
2018-05-11T20:12:27.371Z,6.20
2018-05-11T20:14:55.000Z,6.17
2018-05-11T20:17:22.650Z,5.97
2018-05-11T20:19:50.246Z,6.07
2018-05-11T20:22:18.256Z,6.30
2018-05-11T20:24:46.076Z,5.60
2018-05-11T20:27:13.670Z,5.93
2018-05-11T20:29:41.407Z,5.60
2018-05-11T20:32:08.998Z,5.97
2018-05-11T20:34:36.585Z,5.70
2018-05-11T20:37:04.389Z,6.40
2018-05-11T20:39:31.970Z,6.53
2018-05-11T20:41:59.574Z,6.17
2018-05-11T20:44:27.181Z,6.00
2018-05-11T20:46:54.927Z,5.77
2018-05-11T20:49:22.537Z,6.30
2018-05-11T20:51:50.124Z,5.90
2018-05-11T20:54:17.909Z,5.83
2018-05-11T20:56:45.580Z,5.73
2018-05-11T20:59:13.401Z,5.57
2018-05-11T21:01:41.016Z,6.07
2018-05-11T21:04:10.183Z,6.23
2018-05-11T21:06:37.881Z,6.03
2018-05-11T21:09:05.470Z,6.40
2018-05-11T21:11:34.099Z,6.03
2018-05-11T21:14:01.690Z,6.10
2018-05-11T21:16:29.358Z,5.80
2018-05-11T21:18:57.206Z,6.13
2018-05-11T21:21:24.868Z,5.70
2018-05-11T21:23:52.570Z,6.63
2018-05-11T21:26:20.951Z,6.13
2018-05-11T21:28:49.336Z,5.87
2018-05-11T21:31:17.173Z,6.03
2018-05-11T21:33:44.958Z,6.30
2018-05-11T21:36:13.534Z,6.33
2018-05-11T21:38:42.034Z,6.17
2018-05-11T21:41:10.489Z,6.43
2018-05-11T21:43:38.045Z,6.60
2018-05-11T21:46:06.013Z,6.23
2018-05-11T21:48:33.820Z,6.17
2018-05-11T21:51:01.448Z,6.13
2018-05-11T21:53:29.053Z,6.40
2018-05-11T21:55:56.696Z,5.63
2018-05-11T21:58:24.313Z,6.43
2018-05-11T22:00:51.918Z,6.90
2018-05-11T22:03:20.192Z,6.90
2018-05-11T22:05:48.766Z,6.53
2018-05-11T22:08:16.446Z,6.90
2018-05-11T22:10:44.921Z,6.80
2018-05-11T22:13:12.511Z,7.00
2018-05-11T22:15:40.292Z,6.53
2018-05-11T22:18:08.121Z,6.83
2018-05-11T22:20:35.742Z,7.57
2018-05-11T22:23:03.340Z,7.93
2018-05-11T22:25:31.755Z,8.03
2018-05-11T22:27:59.462Z,9.33
2018-05-11T22:30:27.196Z,8.67
2018-05-11T22:32:54.771Z,8.27
2018-05-11T22:35:22.366Z,8.30
2018-05-11T22:37:50.054Z,8.43
2018-05-11T22:40:17.780Z,8.00
2018-05-11T22:42:45.492Z,8.83
2018-05-11T22:45:13.125Z,9.03
2018-05-11T22:47:41.595Z,8.57
2018-05-11T22:50:09.246Z,8.77
2018-05-11T22:52:36.949Z,9.60
2018-05-11T22:55:04.873Z,9.63
2018-05-11T22:57:32.852Z,9.33
2018-05-11T23:00:00.464Z,9.20
2018-05-11T23:02:28.037Z,9.97
2018-05-11T23:04:55.689Z,9.23
2018-05-11T23:07:23.339Z,10.40
2018-05-11T23:09:50.939Z,10.70
2018-05-11T23:12:18.589Z,9.97
2018-05-11T23:14:46.426Z,10.23
2018-05-11T23:17:16.115Z,10.90
2018-05-11T23:19:43.873Z,10.80
2018-05-11T23:22:13.396Z,10.10
2018-05-11T23:24:41.065Z,10.60
2018-05-11T23:27:08.853Z,10.83
2018-05-11T23:29:36.585Z,10.53
2018-05-11T23:32:05.153Z,10.30
2018-05-11T23:34:32.822Z,9.93
2018-05-11T23:37:00.446Z,10.57
2018-05-11T23:39:28.335Z,10.90
2018-05-11T23:41:56.100Z,11.10
2018-05-11T23:44:24.000Z,10.20
2018-05-11T23:46:51.623Z,10.53
2018-05-11T23:49:19.386Z,10.20
2018-05-11T23:51:47.219Z,9.80
2018-05-11T23:54:14.905Z,11.17
2018-05-11T23:56:42.597Z,10.20
2018-05-11T23:59:10.179Z,11.20
